createdAt,value
2024-04-30T00:00:12.758Z,31.03
2024-04-30T00:01:12.867Z,30.87
2024-04-30T00:02:12.807Z,30.52
2024-04-30T00:03:12.794Z,30.68
2024-04-30T00:04:12.887Z,30.59
2024-04-30T00:05:12.859Z,30.74
2024-04-30T00:06:12.838Z,30.52
2024-04-30T00:07:12.855Z,30.73
2024-04-30T00:08:12.861Z,30.61
2024-04-30T00:09:12.861Z,30.75
2024-04-30T00:10:12.904Z,31.31
2024-04-30T00:11:12.920Z,31.35
2024-04-30T00:12:12.878Z,31.32
2024-04-30T00:13:12.888Z,31.69
2024-04-30T00:14:12.886Z,31.49
2024-04-30T00:15:14.299Z,31.76
2024-04-30T00:16:12.934Z,32.15
2024-04-30T00:17:12.913Z,32.29
2024-04-30T00:18:12.888Z,32.42
2024-04-30T00:19:12.977Z,32.57
2024-04-30T00:20:13.022Z,33.02
2024-04-30T00:21:12.885Z,33.04
2024-04-30T00:22:12.921Z,33.46
2024-04-30T00:23:12.909Z,33.74
2024-04-30T00:24:12.884Z,33.92
2024-04-30T00:25:12.939Z,34.36
2024-04-30T00:26:12.901Z,34.53
2024-04-30T00:27:12.911Z,34.96
2024-04-30T00:28:12.917Z,35.33
2024-04-30T00:29:12.902Z,34.98
2024-04-30T00:30:12.898Z,35.33
2024-04-30T00:31:12.926Z,35.62
2024-04-30T00:32:12.943Z,36.04
2024-04-30T00:33:12.938Z,36.13
2024-04-30T00:34:12.943Z,36.75
2024-04-30T00:35:12.944Z,36.92
2024-04-30T00:36:12.937Z,37.25
2024-04-30T00:37:12.945Z,37.57
2024-04-30T00:38:12.910Z,37.73
2024-04-30T00:39:12.911Z,37.92
2024-04-30T00:40:12.957Z,38.30
2024-04-30T00:41:12.926Z,38.72
2024-04-30T00:42:12.940Z,38.68
2024-04-30T00:43:12.931Z,38.75
2024-04-30T00:44:12.942Z,39.16
2024-04-30T00:45:12.952Z,39.30
2024-04-30T00:46:12.946Z,39.47
2024-04-30T00:47:12.930Z,39.53
2024-04-30T00:48:12.971Z,39.91
2024-04-30T00:49:12.950Z,40.26
2024-04-30T00:50:12.933Z,40.08
2024-04-30T00:51:12.917Z,40.48
2024-04-30T00:52:12.911Z,40.50
2024-04-30T00:53:12.946Z,40.81
2024-04-30T00:54:12.921Z,41.07
2024-04-30T00:55:12.935Z,40.94
2024-04-30T00:56:12.930Z,41.25
2024-04-30T00:57:12.927Z,41.25
2024-04-30T00:58:12.984Z,41.18
2024-04-30T00:59:12.940Z,41.55
2024-04-30T01:00:12.962Z,41.72
2024-04-30T01:01:13.062Z,42.33
2024-04-30T01:02:13.006Z,42.38
2024-04-30T01:03:12.954Z,42.31
2024-04-30T01:04:12.960Z,42.50
2024-04-30T01:05:12.945Z,42.28
2024-04-30T01:06:12.941Z,42.93
2024-04-30T01:07:12.957Z,42.55
2024-04-30T01:08:12.951Z,42.79
2024-04-30T01:09:12.955Z,42.71
2024-04-30T01:10:13.003Z,43.17
2024-04-30T01:11:12.977Z,43.04
2024-04-30T01:12:12.987Z,43.35
2024-04-30T01:13:13.094Z,43.19
2024-04-30T01:14:12.978Z,43.65
2024-04-30T01:15:12.927Z,43.25
2024-04-30T01:16:12.942Z,43.26
2024-04-30T01:17:12.965Z,43.79
2024-04-30T01:18:12.993Z,43.56
2024-04-30T01:19:12.996Z,43.57
2024-04-30T01:20:12.963Z,43.82
2024-04-30T01:21:12.964Z,43.90
2024-04-30T01:22:12.982Z,44.08
2024-04-30T01:23:12.954Z,43.95
2024-04-30T01:24:12.969Z,43.95
2024-04-30T01:25:13.008Z,43.91
2024-04-30T01:26:13.005Z,44.99
2024-04-30T01:27:13.015Z,44.10
2024-04-30T01:28:13.021Z,44.40
2024-04-30T01:29:12.959Z,44.23
2024-04-30T01:30:12.986Z,44.12
2024-04-30T01:31:13.044Z,44.17
2024-04-30T01:32:12.990Z,44.62
2024-04-30T01:33:13.011Z,44.23
2024-04-30T01:34:13.024Z,44.16
2024-04-30T01:35:12.964Z,43.98
2024-04-30T01:36:13.020Z,44.47
2024-04-30T01:37:13.069Z,44.21
2024-04-30T01:38:12.984Z,44.11
2024-04-30T01:39:12.975Z,44.42
2024-04-30T01:40:13.005Z,44.50
2024-04-30T01:41:12.968Z,44.62
2024-04-30T01:42:12.990Z,44.12
2024-04-30T01:43:13.044Z,44.22
2024-04-30T01:44:12.997Z,44.62
2024-04-30T01:45:12.970Z,44.14
2024-04-30T01:46:13.001Z,44.38
2024-04-30T01:47:12.983Z,44.66
2024-04-30T01:48:13.097Z,44.43
2024-04-30T01:49:12.990Z,44.66
2024-04-30T01:50:13.047Z,44.67
2024-04-30T01:51:12.970Z,44.33
2024-04-30T01:52:13.000Z,44.51
2024-04-30T01:53:13.009Z,44.53
2024-04-30T01:54:13.027Z,44.04
2024-04-30T01:55:13.056Z,44.32
2024-04-30T01:56:12.975Z,44.41
2024-04-30T01:57:12.975Z,44.21
2024-04-30T01:58:13.018Z,43.69
2024-04-30T01:59:13.005Z,44.44
2024-04-30T02:00:13.006Z,43.99
2024-04-30T02:01:13.045Z,44.10
2024-04-30T02:02:13.069Z,43.84
2024-04-30T02:03:13.010Z,44.02
2024-04-30T02:04:13.003Z,43.68
2024-04-30T02:05:17.116Z,43.50
2024-04-30T02:06:14.000Z,43.54
2024-04-30T02:07:13.091Z,43.74
2024-04-30T02:08:13.055Z,43.92
2024-04-30T02:09:12.994Z,44.41
2024-04-30T02:10:13.039Z,45.45
2024-04-30T02:11:13.028Z,45.28
2024-04-30T02:12:13.040Z,44.75
2024-04-30T02:13:13.010Z,44.52
2024-04-30T02:14:13.005Z,44.65
2024-04-30T02:15:13.078Z,44.29
2024-04-30T02:16:13.034Z,44.54
2024-04-30T02:17:13.069Z,44.40
2024-04-30T02:18:13.025Z,44.17
2024-04-30T02:19:13.059Z,44.68
2024-04-30T02:20:13.050Z,43.88
2024-04-30T02:21:13.044Z,43.73
2024-04-30T02:22:13.076Z,43.84
2024-04-30T02:23:13.020Z,44.06
2024-04-30T02:24:13.009Z,43.57
2024-04-30T02:25:13.041Z,43.83
2024-04-30T02:26:13.010Z,43.50
2024-04-30T02:27:13.042Z,43.68
2024-04-30T02:28:13.069Z,43.27
2024-04-30T02:29:13.066Z,44.24
2024-04-30T02:30:13.106Z,43.38
2024-04-30T02:31:13.147Z,43.45
2024-04-30T02:32:13.215Z,43.20
2024-04-30T02:33:13.152Z,43.40
2024-04-30T02:34:13.155Z,43.09
2024-04-30T02:35:13.202Z,43.20
2024-04-30T02:36:13.185Z,42.86
2024-04-30T02:37:13.228Z,43.46
2024-04-30T02:38:13.221Z,42.88
2024-04-30T02:39:13.206Z,43.13
2024-04-30T02:40:13.263Z,43.04
2024-04-30T02:41:13.244Z,42.89
2024-04-30T02:42:13.267Z,43.06
2024-04-30T02:43:13.274Z,42.46
2024-04-30T02:44:13.298Z,42.75
2024-04-30T02:45:13.312Z,42.39
2024-04-30T02:46:13.352Z,42.31
2024-04-30T02:47:13.363Z,42.10
2024-04-30T02:48:13.310Z,42.40
2024-04-30T02:49:13.361Z,42.69
2024-04-30T02:50:13.350Z,42.23
2024-04-30T02:51:13.381Z,42.21
2024-04-30T02:52:13.361Z,42.15
2024-04-30T02:53:13.375Z,42.05
2024-04-30T02:54:13.409Z,42.00
2024-04-30T02:55:13.514Z,42.08
2024-04-30T02:56:13.465Z,41.56
2024-04-30T02:57:13.470Z,41.70
2024-04-30T02:58:13.527Z,41.89
2024-04-30T02:59:13.528Z,41.33
2024-04-30T03:00:13.512Z,41.16
2024-04-30T03:01:13.609Z,41.67
2024-04-30T03:02:13.650Z,41.53
2024-04-30T03:03:13.596Z,41.41
2024-04-30T03:04:13.701Z,41.39
2024-04-30T03:05:13.645Z,41.29
2024-04-30T03:06:13.653Z,41.05
2024-04-30T03:07:13.798Z,40.95
2024-04-30T03:08:13.695Z,40.85
2024-04-30T03:09:13.809Z,41.19
2024-04-30T03:10:13.716Z,40.88
2024-04-30T03:11:13.806Z,41.10
2024-04-30T03:12:13.777Z,40.66
2024-04-30T03:13:13.847Z,40.53
2024-04-30T03:14:13.825Z,40.46
2024-04-30T03:15:17.140Z,40.60
2024-04-30T03:16:13.859Z,40.78
2024-04-30T03:17:13.872Z,40.91
2024-04-30T03:18:13.901Z,40.70
2024-04-30T03:19:13.910Z,40.72
2024-04-30T03:20:13.851Z,40.51
2024-04-30T03:21:13.855Z,40.31
2024-04-30T03:22:13.894Z,39.97
2024-04-30T03:23:13.843Z,39.84
2024-04-30T03:24:13.839Z,40.14
2024-04-30T03:25:13.891Z,40.01
2024-04-30T03:26:13.831Z,40.14
2024-04-30T03:27:13.841Z,39.78
2024-04-30T03:28:13.862Z,39.43
2024-04-30T03:29:13.877Z,39.77
2024-04-30T03:30:13.824Z,39.85
2024-04-30T03:31:13.875Z,39.40
2024-04-30T03:32:13.837Z,39.37
2024-04-30T03:33:13.923Z,39.60
2024-04-30T03:34:13.871Z,38.99
2024-04-30T03:35:13.913Z,39.13
2024-04-30T03:36:13.854Z,39.31
2024-04-30T03:37:13.938Z,39.43
2024-04-30T03:38:13.898Z,39.27
2024-04-30T03:39:13.846Z,38.72
2024-04-30T03:40:13.979Z,38.96
2024-04-30T03:41:13.858Z,38.53
2024-04-30T03:42:13.871Z,38.86
2024-04-30T03:43:13.952Z,38.71
2024-04-30T03:44:13.858Z,38.52
2024-04-30T03:45:13.888Z,38.61
2024-04-30T03:46:14.125Z,38.43
2024-04-30T03:47:13.883Z,38.03
2024-04-30T03:48:13.901Z,38.01
2024-04-30T03:49:13.917Z,37.93
2024-04-30T03:50:13.871Z,38.08
2024-04-30T03:51:13.878Z,38.06
2024-04-30T03:52:13.917Z,37.73
2024-04-30T03:53:13.874Z,37.98
2024-04-30T03:54:13.891Z,37.73
2024-04-30T03:55:13.885Z,37.39
2024-04-30T03:56:13.861Z,37.51
2024-04-30T03:57:13.864Z,37.64
2024-04-30T03:58:13.902Z,37.46
2024-04-30T03:59:13.868Z,37.25
2024-04-30T04:00:13.853Z,37.07
2024-04-30T04:01:13.880Z,37.53
2024-04-30T04:02:13.877Z,37.04
2024-04-30T04:03:13.951Z,37.24
2024-04-30T04:04:13.994Z,35.93
2024-04-30T04:05:13.917Z,34.14
2024-04-30T04:06:17.020Z,32.67
2024-04-30T04:07:13.917Z,31.42
2024-04-30T04:08:13.884Z,30.29
2024-04-30T04:09:13.890Z,28.89
2024-04-30T04:10:13.962Z,27.75
2024-04-30T04:11:13.906Z,26.07
2024-04-30T04:12:13.917Z,24.77
2024-04-30T04:13:13.915Z,23.45
2024-04-30T04:14:13.890Z,21.87
2024-04-30T04:15:13.893Z,20.53
2024-04-30T04:16:13.973Z,19.35
2024-04-30T04:17:13.901Z,18.57
2024-04-30T04:18:13.948Z,17.47
2024-04-30T04:19:13.972Z,16.71
2024-04-30T04:20:13.920Z,16.11
2024-04-30T04:21:18.232Z,15.44
2024-04-30T04:22:26.086Z,0.50
2024-04-30T04:23:26.051Z,0.50
2024-04-30T04:24:26.048Z,0.50
2024-04-30T04:25:26.064Z,0.50
2024-04-30T04:26:26.056Z,0.50
2024-04-30T04:27:26.055Z,0.50
2024-04-30T04:28:26.096Z,0.50
2024-04-30T04:29:26.024Z,0.50
2024-04-30T04:30:26.082Z,0.50
2024-04-30T04:31:33.466Z,0.50
2024-04-30T04:32:33.366Z,0.50
2024-04-30T04:33:33.261Z,0.50
2024-04-30T04:34:33.421Z,0.50
2024-04-30T04:35:33.320Z,0.50
2024-04-30T04:36:33.283Z,0.50
2024-04-30T04:37:33.347Z,0.51
2024-04-30T04:38:33.302Z,0.51
2024-04-30T04:39:33.310Z,0.51
2024-04-30T04:40:33.399Z,0.51
2024-04-30T04:41:33.383Z,0.51
2024-04-30T04:42:33.430Z,0.51
2024-04-30T04:43:33.516Z,0.52
2024-04-30T04:44:33.491Z,0.52
2024-04-30T04:45:33.597Z,0.52
2024-04-30T04:46:33.624Z,0.52
2024-04-30T04:47:33.578Z,0.52
2024-04-30T04:48:33.762Z,0.53
2024-04-30T04:49:33.661Z,0.53
2024-04-30T04:50:33.670Z,0.53
2024-04-30T04:51:33.743Z,0.53
2024-04-30T04:52:33.887Z,0.54
2024-04-30T04:53:33.848Z,0.54
2024-04-30T04:54:33.952Z,0.55
2024-04-30T04:55:34.008Z,0.55
2024-04-30T04:56:33.941Z,0.56
2024-04-30T04:57:33.948Z,0.57
2024-04-30T04:58:34.080Z,0.57
2024-04-30T04:59:33.995Z,0.58
2024-04-30T05:00:33.991Z,0.59
2024-04-30T05:01:34.002Z,0.59
2024-04-30T05:02:34.025Z,0.60
2024-04-30T05:03:34.105Z,0.59
2024-04-30T05:04:34.039Z,0.59
2024-04-30T05:05:34.040Z,0.57
2024-04-30T05:06:34.113Z,0.56
2024-04-30T05:07:34.157Z,0.55
2024-04-30T05:08:34.229Z,0.54
2024-04-30T05:09:34.237Z,0.56
2024-04-30T05:10:34.305Z,0.57
2024-04-30T05:11:34.296Z,0.59
2024-04-30T05:12:34.250Z,0.59
2024-04-30T05:13:34.401Z,0.60
2024-04-30T05:14:34.312Z,0.60
2024-04-30T05:15:34.329Z,0.60
2024-04-30T05:16:34.489Z,0.61
2024-04-30T05:17:34.462Z,0.60
2024-04-30T05:18:34.425Z,0.59
2024-04-30T05:19:34.506Z,0.60
2024-04-30T05:20:34.526Z,0.60
2024-04-30T05:21:34.586Z,0.59
2024-04-30T05:22:34.820Z,0.59
2024-04-30T05:23:34.669Z,0.59
2024-04-30T05:24:34.717Z,0.58
2024-04-30T05:25:34.832Z,0.58
2024-04-30T05:26:34.782Z,0.58
2024-04-30T05:27:34.825Z,0.57
2024-04-30T05:28:34.955Z,0.56
2024-04-30T05:29:34.845Z,0.58
2024-04-30T05:30:34.894Z,0.56
2024-04-30T05:31:35.032Z,0.57
2024-04-30T05:32:35.033Z,0.57
2024-04-30T05:33:35.112Z,0.57
2024-04-30T05:34:35.169Z,0.54
2024-04-30T05:35:35.067Z,0.52
2024-04-30T05:36:35.123Z,0.51
2024-04-30T05:37:35.240Z,0.50
2024-04-30T05:38:35.239Z,0.50
2024-04-30T05:39:35.288Z,0.50
2024-04-30T05:40:35.332Z,0.50
2024-04-30T05:41:35.332Z,0.50
2024-04-30T05:42:35.338Z,0.50
2024-04-30T05:43:35.377Z,0.50
2024-04-30T05:44:35.432Z,0.51
2024-04-30T05:45:35.470Z,0.50
2024-04-30T05:46:35.637Z,0.50
2024-04-30T05:47:35.529Z,0.50
2024-04-30T05:48:35.545Z,0.51
2024-04-30T05:49:35.687Z,0.50
2024-04-30T05:50:35.657Z,0.50
2024-04-30T05:51:35.957Z,0.50
2024-04-30T05:52:36.051Z,0.50
2024-04-30T05:53:35.809Z,0.50
2024-04-30T05:54:35.880Z,0.50
2024-04-30T05:55:35.968Z,0.50
2024-04-30T05:56:35.954Z,0.51
2024-04-30T05:57:35.910Z,0.51
2024-04-30T05:58:36.104Z,0.52
2024-04-30T05:59:35.969Z,0.53
2024-04-30T06:00:36.032Z,0.54
2024-04-30T06:01:36.521Z,0.54
2024-04-30T06:02:36.154Z,0.55
2024-04-30T06:03:36.246Z,0.56
2024-04-30T06:04:36.331Z,0.55
2024-04-30T06:05:36.390Z,0.53
2024-04-30T06:06:36.378Z,0.55
2024-04-30T06:07:36.572Z,0.53
2024-04-30T06:08:39.992Z,0.53
2024-04-30T06:09:36.521Z,0.53
2024-04-30T06:10:36.560Z,0.53
2024-04-30T06:11:36.561Z,0.50
2024-04-30T06:12:36.518Z,0.48
2024-04-30T06:13:37.126Z,0.47
2024-04-30T06:14:36.519Z,0.50
2024-04-30T06:15:36.532Z,0.50
2024-04-30T06:16:36.560Z,0.50
2024-04-30T06:17:36.554Z,0.50
2024-04-30T06:18:36.528Z,0.51
2024-04-30T06:19:36.723Z,0.51
2024-04-30T06:20:36.525Z,0.50
2024-04-30T06:21:38.653Z,0.50
2024-04-30T06:22:36.580Z,0.50
2024-04-30T06:23:37.010Z,0.50
2024-04-30T06:24:36.538Z,0.51
2024-04-30T06:25:36.730Z,0.51
2024-04-30T06:26:36.967Z,0.50
2024-04-30T06:27:36.569Z,0.50
2024-04-30T06:28:36.585Z,0.50
2024-04-30T06:29:36.544Z,0.51
2024-04-30T06:30:36.551Z,0.50
2024-04-30T06:31:37.069Z,0.50
2024-04-30T06:32:36.584Z,0.50
2024-04-30T06:33:36.674Z,0.50
2024-04-30T06:34:36.582Z,0.50
2024-04-30T06:35:36.561Z,0.50
2024-04-30T06:36:36.632Z,0.52
2024-04-30T06:37:36.720Z,0.52
2024-04-30T06:38:36.557Z,0.58
2024-04-30T06:39:36.546Z,0.60
2024-04-30T06:40:36.696Z,0.64
2024-04-30T06:41:36.978Z,0.69
2024-04-30T06:42:36.559Z,0.76
2024-04-30T06:43:36.641Z,0.84
2024-04-30T06:44:36.568Z,0.96
2024-04-30T06:45:36.568Z,1.06
2024-04-30T06:46:36.684Z,1.16
2024-04-30T06:47:36.701Z,1.28
2024-04-30T06:48:36.637Z,1.37
2024-04-30T06:49:36.579Z,1.47
2024-04-30T06:50:36.559Z,1.56
2024-04-30T06:51:36.634Z,1.69
2024-04-30T06:52:36.626Z,1.82
2024-04-30T06:53:36.527Z,1.94
2024-04-30T06:54:36.577Z,2.07
2024-04-30T06:55:36.625Z,2.14
2024-04-30T06:56:36.965Z,2.33
2024-04-30T06:57:36.960Z,2.46
2024-04-30T06:58:36.704Z,2.56
2024-04-30T06:59:37.009Z,2.74
2024-04-30T07:00:36.580Z,2.95
2024-04-30T07:01:36.666Z,3.10
2024-04-30T07:02:36.996Z,3.31
2024-04-30T07:03:36.575Z,3.43
2024-04-30T07:04:36.636Z,3.60
2024-04-30T07:05:36.621Z,3.78
2024-04-30T07:06:36.594Z,3.90
2024-04-30T07:07:36.663Z,4.11
2024-04-30T07:08:36.601Z,4.24
2024-04-30T07:09:36.642Z,4.25
2024-04-30T07:10:36.696Z,4.49
2024-04-30T07:11:36.704Z,4.53
2024-04-30T07:12:36.993Z,4.66
2024-04-30T07:13:36.927Z,4.75
2024-04-30T07:14:36.848Z,4.81
2024-04-30T07:15:36.879Z,4.95
2024-04-30T07:16:37.574Z,5.02
2024-04-30T07:17:37.165Z,5.18
2024-04-30T07:18:38.581Z,5.24
2024-04-30T07:19:37.411Z,5.39
2024-04-30T07:20:37.123Z,5.53
2024-04-30T07:21:37.144Z,5.68
2024-04-30T07:22:37.320Z,5.63
2024-04-30T07:23:37.525Z,5.84
2024-04-30T07:24:37.513Z,6.00
2024-04-30T07:25:37.418Z,5.95
2024-04-30T07:26:37.338Z,6.01
2024-04-30T07:27:37.386Z,5.93
2024-04-30T07:28:37.478Z,6.01
2024-04-30T07:29:37.512Z,6.00
2024-04-30T07:30:37.490Z,5.95
2024-04-30T07:31:40.441Z,5.95
2024-04-30T07:32:37.623Z,5.85
2024-04-30T07:33:37.607Z,5.87
2024-04-30T07:34:38.080Z,6.02
2024-04-30T07:35:37.528Z,6.10
2024-04-30T07:36:37.552Z,5.88
2024-04-30T07:37:37.709Z,5.82
2024-04-30T07:38:37.529Z,5.66
2024-04-30T07:39:37.642Z,5.60
2024-04-30T07:40:38.099Z,5.55
2024-04-30T07:41:37.526Z,5.44
2024-04-30T07:42:37.556Z,5.51
2024-04-30T07:43:37.670Z,5.66
2024-04-30T07:44:37.593Z,5.63
2024-04-30T07:45:38.002Z,5.66
2024-04-30T07:46:37.582Z,5.75
2024-04-30T07:47:37.632Z,5.85
2024-04-30T07:48:37.546Z,5.64
2024-04-30T07:49:37.780Z,5.63
2024-04-30T07:50:38.063Z,5.58
2024-04-30T07:51:37.538Z,5.67
2024-04-30T07:52:38.147Z,5.82
2024-04-30T07:53:37.544Z,5.79
2024-04-30T07:54:37.576Z,5.89
2024-04-30T07:55:37.595Z,5.70
2024-04-30T07:56:37.559Z,5.53
2024-04-30T07:57:38.009Z,4.88
2024-04-30T07:58:37.682Z,4.49
2024-04-30T07:59:37.603Z,4.14
2024-04-30T08:00:37.590Z,3.86
2024-04-30T08:01:37.610Z,3.62
2024-04-30T08:02:37.679Z,3.10
2024-04-30T08:03:37.653Z,2.87
2024-04-30T08:04:37.756Z,2.45
2024-04-30T08:05:42.832Z,2.30
2024-04-30T08:06:38.571Z,2.17
2024-04-30T08:07:37.665Z,2.06
2024-04-30T08:08:38.063Z,1.89
2024-04-30T08:09:37.578Z,1.75
2024-04-30T08:10:38.653Z,1.66
2024-04-30T08:11:37.604Z,1.47
2024-04-30T08:12:37.559Z,1.35
2024-04-30T08:13:37.651Z,1.27
2024-04-30T08:14:37.607Z,1.22
2024-04-30T08:15:38.502Z,1.17
2024-04-30T08:16:38.091Z,1.12
2024-04-30T08:17:37.759Z,1.08
2024-04-30T08:18:37.698Z,1.05
2024-04-30T08:19:38.183Z,0.99
2024-04-30T08:20:38.022Z,0.95
2024-04-30T08:21:37.935Z,0.95
2024-04-30T08:22:38.007Z,0.92
2024-04-30T08:23:37.981Z,0.87
2024-04-30T08:24:38.044Z,0.91
2024-04-30T08:25:38.518Z,0.95
2024-04-30T08:26:38.161Z,1.03
2024-04-30T08:27:38.207Z,1.13
2024-04-30T08:28:38.365Z,1.17
2024-04-30T08:29:38.382Z,1.10
2024-04-30T08:30:38.546Z,1.03
2024-04-30T08:31:38.585Z,0.96
2024-04-30T08:32:38.571Z,0.90
2024-04-30T08:33:38.744Z,0.85
2024-04-30T08:34:39.580Z,0.86
2024-04-30T08:35:38.907Z,0.90
2024-04-30T08:36:38.849Z,0.89
2024-04-30T08:37:47.475Z,0.81
2024-04-30T08:38:39.900Z,0.80
2024-04-30T08:39:39.079Z,0.77
2024-04-30T08:40:38.945Z,0.72
2024-04-30T08:41:38.923Z,0.71
2024-04-30T08:42:38.886Z,0.67
2024-04-30T08:43:38.917Z,0.61
2024-04-30T08:44:38.869Z,0.57
2024-04-30T08:45:39.533Z,0.55
2024-04-30T08:46:39.082Z,0.53
2024-04-30T08:47:39.071Z,0.50
2024-04-30T08:48:41.017Z,0.50
2024-04-30T08:49:46.786Z,0.50
2024-04-30T08:50:40.194Z,0.50
2024-04-30T08:51:39.199Z,0.50
2024-04-30T08:52:39.189Z,0.49
2024-04-30T08:53:39.091Z,0.46
2024-04-30T08:54:40.431Z,0.46
2024-04-30T08:55:39.183Z,0.51
2024-04-30T08:56:39.183Z,0.51
2024-04-30T08:57:40.011Z,0.51
2024-04-30T08:58:39.199Z,0.50
2024-04-30T08:59:39.561Z,0.53
2024-04-30T09:00:46.778Z,0.50
2024-04-30T09:01:46.835Z,0.50
2024-04-30T09:02:48.829Z,0.50
2024-04-30T09:03:46.774Z,0.50
2024-04-30T09:04:46.857Z,0.50
2024-04-30T09:05:47.371Z,0.50
2024-04-30T09:06:46.779Z,0.50
2024-04-30T09:07:46.795Z,0.50
2024-04-30T09:08:48.930Z,0.52
2024-04-30T09:09:48.697Z,0.52
2024-04-30T09:10:47.046Z,0.52
2024-04-30T09:11:47.230Z,0.54
2024-04-30T09:12:47.083Z,0.55
2024-04-30T09:13:47.176Z,0.56
2024-04-30T09:14:47.137Z,0.57
2024-04-30T09:15:47.158Z,0.58
2024-04-30T09:16:47.406Z,0.61
2024-04-30T09:17:47.318Z,0.66
2024-04-30T09:18:47.226Z,0.69
2024-04-30T09:19:47.304Z,0.72
2024-04-30T09:20:47.349Z,0.73
2024-04-30T09:21:48.257Z,0.73
2024-04-30T09:22:47.467Z,0.74
2024-04-30T09:23:47.351Z,0.75
2024-04-30T09:24:47.516Z,0.76
2024-04-30T09:25:47.463Z,0.74
2024-04-30T09:26:47.513Z,0.75
2024-04-30T09:27:47.499Z,0.72
2024-04-30T09:28:47.511Z,0.72
2024-04-30T09:29:47.546Z,0.70
2024-04-30T09:30:47.547Z,0.67
2024-04-30T09:31:47.637Z,0.67
2024-04-30T09:32:47.727Z,0.65
2024-04-30T09:33:47.678Z,0.64
2024-04-30T09:34:47.743Z,0.62
2024-04-30T09:35:47.774Z,0.62
2024-04-30T09:36:47.760Z,0.59
2024-04-30T09:37:47.839Z,0.57
2024-04-30T09:38:47.903Z,0.56
2024-04-30T09:39:48.016Z,0.55
2024-04-30T09:40:47.924Z,0.54
2024-04-30T09:41:47.996Z,0.52
2024-04-30T09:42:48.003Z,0.50
2024-04-30T09:43:48.082Z,0.50
2024-04-30T09:44:48.051Z,0.51
2024-04-30T09:45:48.139Z,0.50
2024-04-30T09:46:48.307Z,0.50
2024-04-30T09:47:48.414Z,0.50
2024-04-30T09:48:48.234Z,0.50
2024-04-30T09:49:48.406Z,0.50
2024-04-30T09:50:48.420Z,0.51
2024-04-30T09:51:48.374Z,0.52
2024-04-30T09:52:48.452Z,0.52
2024-04-30T09:53:48.488Z,0.53
2024-04-30T09:54:48.489Z,0.55
2024-04-30T09:55:48.555Z,0.58
2024-04-30T09:56:48.589Z,0.67
2024-04-30T09:57:48.628Z,0.76
2024-04-30T09:58:48.699Z,0.85
2024-04-30T09:59:48.749Z,0.91
2024-04-30T10:00:48.698Z,0.99
2024-04-30T10:01:48.822Z,1.09
2024-04-30T10:02:48.840Z,1.19
2024-04-30T10:03:48.828Z,1.30
2024-04-30T10:04:48.870Z,1.39
2024-04-30T10:05:48.908Z,1.52
2024-04-30T10:06:52.092Z,1.61
2024-04-30T10:07:49.044Z,1.73
2024-04-30T10:08:48.894Z,1.84
2024-04-30T10:09:48.874Z,1.95
2024-04-30T10:10:49.014Z,2.08
2024-04-30T10:11:48.906Z,2.16
2024-04-30T10:12:48.920Z,2.31
2024-04-30T10:13:48.921Z,2.45
2024-04-30T10:14:48.916Z,2.52
2024-04-30T10:15:48.901Z,2.62
2024-04-30T10:16:49.455Z,2.77
2024-04-30T10:17:48.914Z,2.88
2024-04-30T10:18:48.916Z,3.04
2024-04-30T10:19:49.003Z,3.09
2024-04-30T10:20:48.905Z,3.19
2024-04-30T10:21:49.144Z,3.34
2024-04-30T10:22:48.955Z,3.36
2024-04-30T10:23:48.910Z,3.55
2024-04-30T10:24:48.926Z,3.70
2024-04-30T10:25:48.978Z,3.83
2024-04-30T10:26:48.916Z,3.97
2024-04-30T10:27:48.947Z,4.10
2024-04-30T10:28:48.998Z,4.26
2024-04-30T10:29:48.966Z,4.39
2024-04-30T10:30:48.917Z,4.47
2024-04-30T10:31:49.407Z,4.60
2024-04-30T10:32:48.989Z,4.68
2024-04-30T10:33:49.072Z,4.80
2024-04-30T10:34:48.947Z,4.81
2024-04-30T10:35:50.421Z,5.00
2024-04-30T10:36:48.956Z,5.12
2024-04-30T10:37:48.941Z,5.14
2024-04-30T10:38:48.914Z,5.25
2024-04-30T10:39:48.992Z,5.44
2024-04-30T10:40:48.969Z,5.47
2024-04-30T10:41:48.943Z,5.55
2024-04-30T10:42:48.941Z,5.54
2024-04-30T10:43:49.009Z,5.68
2024-04-30T10:44:48.986Z,5.61
2024-04-30T10:45:48.949Z,5.77
2024-04-30T10:46:48.972Z,5.94
2024-04-30T10:47:49.523Z,5.98
2024-04-30T10:48:48.983Z,5.98
2024-04-30T10:49:51.128Z,6.02
2024-04-30T10:50:49.325Z,6.06
2024-04-30T10:51:48.964Z,6.20
2024-04-30T10:52:48.992Z,6.41
2024-04-30T10:53:49.028Z,6.42
2024-04-30T10:54:49.120Z,6.54
2024-04-30T10:55:49.475Z,6.52
2024-04-30T10:56:49.127Z,6.45
2024-04-30T10:57:49.418Z,6.68
2024-04-30T10:58:49.203Z,6.49
2024-04-30T10:59:49.224Z,6.61
2024-04-30T11:00:49.323Z,6.74
2024-04-30T11:01:49.490Z,6.63
2024-04-30T11:02:50.724Z,6.78
2024-04-30T11:03:49.386Z,6.74
2024-04-30T11:04:49.490Z,6.86
2024-04-30T11:05:49.435Z,6.66
2024-04-30T11:06:49.626Z,6.81
2024-04-30T11:07:49.510Z,6.72
2024-04-30T11:08:49.548Z,6.77
2024-04-30T11:09:49.627Z,6.82
2024-04-30T11:10:49.714Z,6.90
2024-04-30T11:11:50.243Z,6.96
2024-04-30T11:12:49.984Z,6.90
2024-04-30T11:13:49.734Z,7.02
2024-04-30T11:14:49.729Z,6.97
2024-04-30T11:15:59.421Z,6.87
2024-04-30T11:16:50.795Z,6.88
2024-04-30T11:17:49.902Z,6.92
2024-04-30T11:18:49.795Z,6.99
2024-04-30T11:19:50.090Z,7.06
2024-04-30T11:20:49.803Z,7.18
2024-04-30T11:21:49.774Z,7.21
2024-04-30T11:22:49.846Z,7.10
2024-04-30T11:23:49.784Z,7.32
2024-04-30T11:24:49.778Z,7.31
2024-04-30T11:25:49.856Z,7.29
2024-04-30T11:26:50.941Z,7.07
2024-04-30T11:27:49.784Z,7.08
2024-04-30T11:29:03.679Z,7.15
2024-04-30T11:29:50.859Z,7.16
2024-04-30T11:30:49.807Z,7.17
2024-04-30T11:31:49.819Z,7.20
2024-04-30T11:32:49.902Z,7.18
2024-04-30T11:33:49.805Z,7.12
2024-04-30T11:34:49.898Z,7.13
2024-04-30T11:35:49.874Z,7.08
2024-04-30T11:36:49.803Z,7.16
2024-04-30T11:37:49.926Z,6.89
2024-04-30T11:38:49.858Z,6.96
2024-04-30T11:39:49.780Z,6.88
2024-04-30T11:40:49.881Z,6.91
2024-04-30T11:41:59.864Z,6.85
2024-04-30T11:42:50.835Z,6.86
2024-04-30T11:43:49.877Z,6.87
2024-04-30T11:44:49.809Z,6.91
2024-04-30T11:45:49.811Z,6.87
2024-04-30T11:46:49.798Z,6.82
2024-04-30T11:47:49.911Z,6.81
2024-04-30T11:48:49.863Z,6.69
2024-04-30T11:49:49.874Z,6.82
2024-04-30T11:50:49.811Z,6.69
2024-04-30T11:51:49.808Z,6.78
2024-04-30T11:52:50.070Z,6.69
2024-04-30T11:53:49.824Z,6.63
2024-04-30T11:54:49.804Z,6.58
2024-04-30T11:55:49.864Z,6.69
2024-04-30T11:56:49.968Z,6.72
2024-04-30T11:57:49.846Z,6.65
2024-04-30T11:58:49.905Z,6.79
2024-04-30T11:59:49.940Z,6.61
2024-04-30T12:00:50.025Z,6.71
2024-04-30T12:01:50.161Z,6.68
2024-04-30T12:02:50.087Z,6.75
2024-04-30T12:03:50.136Z,6.63
2024-04-30T12:04:50.371Z,6.73
2024-04-30T12:05:50.275Z,6.85
2024-04-30T12:06:50.275Z,6.73
2024-04-30T12:07:50.391Z,6.75
2024-04-30T12:08:50.335Z,6.80
2024-04-30T12:09:50.368Z,6.58
2024-04-30T12:10:50.557Z,6.71
2024-04-30T12:11:50.464Z,6.68
2024-04-30T12:12:50.470Z,6.51
2024-04-30T12:13:50.543Z,6.70
2024-04-30T12:14:50.590Z,6.66
2024-04-30T12:15:50.594Z,6.63
2024-04-30T12:16:50.774Z,6.49
2024-04-30T12:17:50.895Z,6.43
2024-04-30T12:18:50.707Z,6.65
2024-04-30T12:19:50.775Z,6.56
2024-04-30T12:20:50.790Z,6.61
2024-04-30T12:21:50.843Z,6.42
2024-04-30T12:22:50.884Z,6.37
2024-04-30T12:23:50.960Z,6.30
2024-04-30T12:24:50.955Z,6.22
2024-04-30T12:25:51.067Z,6.32
2024-04-30T12:26:51.069Z,6.15
2024-04-30T12:27:51.078Z,6.19
2024-04-30T12:28:51.214Z,6.01
2024-04-30T12:29:51.156Z,6.18
2024-04-30T12:30:51.211Z,5.81
2024-04-30T12:31:51.304Z,5.97
2024-04-30T12:32:51.383Z,5.97
2024-04-30T12:33:51.373Z,5.90
2024-04-30T12:34:51.410Z,5.81
2024-04-30T12:35:51.439Z,5.73
2024-04-30T12:36:51.460Z,5.74
2024-04-30T12:37:51.520Z,5.67
2024-04-30T12:38:51.569Z,5.67
2024-04-30T12:39:51.619Z,5.51
2024-04-30T12:40:51.663Z,5.46
2024-04-30T12:41:51.768Z,5.38
2024-04-30T12:42:51.693Z,5.37
2024-04-30T12:43:51.699Z,5.32
2024-04-30T12:44:51.748Z,5.38
2024-04-30T12:45:51.823Z,5.41
2024-04-30T12:46:51.846Z,5.26
2024-04-30T12:47:51.935Z,5.22
2024-04-30T12:48:51.890Z,5.19
2024-04-30T12:49:51.922Z,5.16
2024-04-30T12:50:51.904Z,5.17
2024-04-30T12:51:51.999Z,5.13
2024-04-30T12:52:52.042Z,5.19
2024-04-30T12:53:52.034Z,5.08
2024-04-30T12:54:52.038Z,5.11
2024-04-30T12:55:52.220Z,5.13
2024-04-30T12:56:52.146Z,4.96
2024-04-30T12:57:52.153Z,5.03
2024-04-30T12:58:52.298Z,4.88
2024-04-30T12:59:52.221Z,4.76
2024-04-30T13:00:52.331Z,4.87
2024-04-30T13:01:52.298Z,4.76
2024-04-30T13:02:52.385Z,4.76
2024-04-30T13:03:52.352Z,4.68
2024-04-30T13:04:52.475Z,4.66
2024-04-30T13:05:52.468Z,4.62
2024-04-30T13:06:52.518Z,4.53
2024-04-30T13:07:52.621Z,4.56
2024-04-30T13:08:52.537Z,4.50
2024-04-30T13:09:52.622Z,4.47